Time;durP1;ratioP1;P1;durP2;ratioP2;P2;SDS_P1;SDS_P2;PMS_P1;PMS_P2;Temp;Humidity;BMP_temperature;BMP_pressure;BME280_temperature;BME280_humidity;BME280_pressure;Samples;Min_cycle;Max_cycle;Signal;HPM_P1;HPM_P2
2021/03/01 00:00:13;;;;;;;8.77;5.80;;;;;;;-1.44;100.00;101786.22;5061158;28;20040;-78
2021/03/01 00:03:16;;;;;;;15.38;7.30;;;;;;;-1.52;100.00;101776.25;5060815;28;20048;-78
2021/03/01 00:06:20;;;;;;;16.63;5.88;;;;;;;-1.55;100.00;101775.78;5060992;28;20048;-79
2021/03/01 00:09:24;;;;;;;28.92;9.05;;;;;;;-1.58;100.00;101773.75;5061049;28;20036;-79
2021/03/01 00:12:27;;;;;;;10.75;5.45;;;;;;;-1.60;100.00;101778.75;5073032;28;20044;-79
2021/03/01 00:15:31;;;;;;;10.32;7.57;;;;;;;-1.65;100.00;101773.56;5061128;28;20040;-79
2021/03/01 00:18:34;;;;;;;11.63;4.75;;;;;;;-1.69;100.00;101772.63;5060184;28;20044;-78
2021/03/01 00:21:37;;;;;;;13.13;4.20;;;;;;;-1.68;100.00;101782.44;5060523;28;20040;-79
2021/03/01 00:24:41;;;;;;;10.45;5.50;;;;;;;-1.67;100.00;101789.47;5060886;28;20053;-79
2021/03/01 00:27:44;;;;;;;9.32;4.90;;;;;;;-1.69;100.00;101786.28;5060439;28;20036;-79
2021/03/01 00:30:48;;;;;;;15.10;6.28;;;;;;;-1.68;100.00;101790.63;5060711;28;20052;-79
2021/03/01 00:33:52;;;;;;;8.23;4.57;;;;;;;-1.72;100.00;101787.00;5060603;28;20044;-78
2021/03/01 00:36:55;;;;;;;5.28;3.42;;;;;;;-1.72;100.00;101787.00;5060292;28;20066;-79
2021/03/01 00:39:59;;;;;;;10.95;4.90;;;;;;;-1.77;100.00;101784.50;5073016;28;20068;-79
2021/03/01 00:43:02;;;;;;;15.10;6.47;;;;;;;-1.79;100.00;101784.06;5060389;28;20044;-79
2021/03/01 00:46:06;;;;;;;11.65;6.07;;;;;;;-1.83;100.00;101788.63;5072611;28;20485;-79
2021/03/01 00:49:09;;;;;;;11.80;5.53;;;;;;;-1.86;100.00;101775.63;5060354;28;20464;-78
2021/03/01 00:52:12;;;;;;;24.83;8.10;;;;;;;-1.88;100.00;101772.47;5060297;28;20048;-78
2021/03/01 00:55:16;;;;;;;17.70;5.95;;;;;;;-1.85;100.00;101784.63;5060092;28;20040;-78
2021/03/01 00:58:21;;;;;;;15.73;6.38;;;;;;;-1.86;100.00;101772.91;5072465;28;20044;-79
2021/03/01 01:01:24;;;;;;;7.97;5.25;;;;;;;-1.88;100.00;101772.47;5072616;28;20045;-78
2021/03/01 01:04:27;;;;;;;10.52;5.22;;;;;;;-1.93;100.00;101764.53;5060271;28;20535;-78
2021/03/01 01:07:30;;;;;;;13.38;6.05;;;;;;;-1.95;100.00;101761.31;5060197;28;20044;-78
2021/03/01 01:10:36;;;;;;;27.52;8.02;;;;;;;-1.96;100.00;101759.75;5072283;28;20032;-78
2021/03/01 01:13:40;;;;;;;5.57;4.22;;;;;;;-1.92;100.00;101759.84;5059766;28;20041;-78
2021/03/01 01:16:43;;;;;;;13.70;4.55;;;;;;;-1.92;100.00;101760.66;5059921;28;20056;-78
2021/03/01 01:19:46;;;;;;;10.20;4.50;;;;;;;-1.93;100.00;101756.34;5060124;28;20040;-79
2021/03/01 01:22:50;;;;;;;11.95;4.68;;;;;;;-1.97;100.00;101751.91;5039771;28;20493;-78
2021/03/01 01:25:53;;;;;;;3.30;3.05;;;;;;;-1.99;100.00;101748.72;5052440;28;20041;-78
2021/03/01 01:28:57;;;;;;;11.50;4.72;;;;;;;-2.01;100.00;101751.78;5052043;28;20071;-78
2021/03/01 01:32:00;;;;;;;8.95;4.43;;;;;;;-2.02;100.00;101758.41;5062809;28;20429;-78
2021/03/01 01:35:12;;;;;;;4.53;3.83;;;;;;;-2.06;100.00;101753.97;5063296;28;20044;-78
2021/03/01 01:38:15;;;;;;;10.80;5.45;;;;;;;-2.10;100.00;101759.31;5051760;28;20056;-78
2021/03/01 01:41:19;;;;;;;29.38;5.25;;;;;;;-2.14;100.00;101747.50;5052236;28;20041;-78
2021/03/01 01:44:23;;;;;;;16.65;4.03;;;;;;;-2.16;100.00;101741.56;5040054;28;20402;-78
2021/03/01 01:47:26;;;;;;;9.82;4.65;;;;;;;-2.13;100.00;101743.63;5051773;28;20033;-78
2021/03/01 01:50:30;;;;;;;3.83;3.47;;;;;;;-2.11;100.00;101741.34;5062613;28;20048;-78
2021/03/01 01:53:34;;;;;;;4.07;3.67;;;;;;;-2.14;100.00;101742.03;5051718;28;20060;-78
2021/03/01 01:56:40;;;;;;;20.83;4.15;;;;;;;-2.08;100.00;101732.47;5039455;28;20397;-78
2021/03/01 01:59:43;;;;;;;3.13;2.38;;;;;;;-2.01;100.00;101719.03;5039800;28;20402;-78
2021/03/01 02:02:52;;;;;;;16.02;5.40;;;;;;;-1.99;100.00;101724.16;5051651;28;20047;-78
2021/03/01 02:06:01;;;;;;;16.05;6.35;;;;;;;-2.05;100.00;101723.59;5062728;28;20140;-78
2021/03/01 02:09:38;;;;;;;6.28;4.53;;;;;;;-2.11;100.00;101719.53;5051650;28;20040;-78
2021/03/01 02:13:11;;;;;;;8.93;5.15;;;;;;;-2.17;100.00;101723.63;5039908;28;20048;-78
2021/03/01 02:16:27;;;;;;;;;;;;;;;-2.24;100.00;101715.22;5043776;28;20067;-78
2021/03/01 02:19:32;;;;;;;12.48;5.70;;;;;;;-2.28;100.00;101714.31;5062700;28;19916;-79
2021/03/01 02:22:35;;;;;;;8.25;4.88;;;;;;;-2.30;100.00;101711.16;5072692;28;20484;-77
2021/03/01 02:25:48;;;;;;;14.45;5.30;;;;;;;-2.30;100.00;101705.69;5062917;28;20036;-77
2021/03/01 02:28:55;;;;;;;11.93;4.35;;;;;;;-2.32;100.00;101702.50;5074559;28;20048;-78
2021/03/01 02:32:01;;;;;;;14.02;5.63;;;;;;;-2.38;100.00;101703.88;5062817;28;20037;-78
2021/03/01 02:35:06;;;;;;;4.78;4.22;;;;;;;-2.42;100.00;101702.97;5075655;28;20040;-78
2021/03/01 02:38:11;;;;;;;12.32;4.20;;;;;;;-2.44;100.00;101699.78;5074732;28;20052;-78
2021/03/01 02:41:17;;;;;;;7.30;2.13;;;;;;;-2.40;100.00;101695.22;5075119;28;20041;-78
2021/03/01 02:44:21;;;;;;;5.60;2.75;;;;;;;-2.39;100.00;101691.38;5075007;28;20134;-78
2021/03/01 02:47:26;;;;;;;7.10;4.22;;;;;;;-2.32;100.00;101688.88;5074560;28;20044;-78
2021/03/01 02:50:30;;;;;;;7.22;4.18;;;;;;;-2.33;100.00;101685.34;5062466;28;20051;-76
2021/03/01 02:53:36;;;;;;;11.95;5.30;;;;;;;-2.37;100.00;101689.09;5074784;28;20055;-77
2021/03/01 02:56:40;;;;;;;13.85;4.20;;;;;;;-2.44;100.00;101686.16;5074463;28;20040;-76
2021/03/01 02:59:45;;;;;;;3.47;3.17;;;;;;;-2.49;100.00;101680.94;5062788;28;20048;-76
2021/03/01 03:02:50;;;;;;;11.00;4.30;;;;;;;-2.53;100.00;101677.28;5062016;28;20085;-78
2021/03/01 03:05:54;;;;;;;11.23;3.47;;;;;;;-2.54;100.00;101672.97;5062645;28;20036;-77
2021/03/01 03:08:59;;;;;;;3.90;2.50;;;;;;;-2.51;100.00;101673.09;5074080;28;20045;-78
2021/03/01 03:12:04;;;;;;;7.50;2.83;;;;;;;-2.50;100.00;101665.72;5074491;28;20052;-77
2021/03/01 03:15:15;;;;;;;4.35;3.92;;;;;;;-2.54;100.00;101659.34;5062125;28;20397;-77
2021/03/01 03:18:19;;;;;;;6.32;4.45;;;;;;;-2.57;100.00;101658.09;5052740;28;20056;-76
2021/03/01 03:21:23;;;;;;;5.65;3.38;;;;;;;-2.61;100.00;101657.19;5054236;28;20044;-75
2021/03/01 03:24:27;;;;;;;9.18;4.35;;;;;;;-2.64;100.00;101657.09;5053531;28;20052;-76
2021/03/01 03:27:30;;;;;;;8.20;5.88;;;;;;;-2.66;100.00;101648.44;5053787;28;20044;-77
2021/03/01 03:30:34;;;;;;;18.52;5.82;;;;;;;-2.69;100.00;101654.59;5054259;28;20048;-77
2021/03/01 03:33:39;;;;;;;6.38;4.38;;;;;;;-2.72;100.00;101655.28;5053613;28;20490;-77
2021/03/01 03:36:49;;;;;;;8.77;4.93;;;;;;;-2.74;100.00;101649.38;5053932;28;20044;-76
2021/03/01 03:39:55;;;;;;;7.65;3.05;;;;;;;-2.74;100.00;101646.63;5053256;28;20060;-76
2021/03/01 03:43:01;;;;;;;17.80;7.30;;;;;;;-2.75;100.00;101651.28;5053774;28;20048;-76
2021/03/01 03:46:07;;;;;;;8.70;6.25;;;;;;;-2.78;100.00;101640.28;5053152;28;20041;-76
2021/03/01 03:49:14;;;;;;;17.73;6.88;;;;;;;-2.76;100.00;101643.47;5053747;28;20838;-76
2021/03/01 03:52:20;;;;;;;6.22;3.42;;;;;;;-2.78;100.00;101640.28;5053518;28;20044;-76
2021/03/01 03:55:26;;;;;;;7.10;2.95;;;;;;;-2.79;100.00;101638.69;5053689;28;20067;-76
2021/03/01 03:58:35;;;;;;;14.50;5.05;;;;;;;-2.80;100.00;101642.56;5052105;28;20052;-76
2021/03/01 04:01:41;;;;;;;9.85;6.32;;;;;;;-2.81;100.00;101640.97;5052215;28;20033;-76
2021/03/01 04:04:46;;;;;;;9.25;3.78;;;;;;;-2.83;100.00;101640.50;5052952;28;20040;-76
2021/03/01 04:07:51;;;;;;;12.38;4.70;;;;;;;-2.83;100.00;101643.22;5051812;28;20508;-76
2021/03/01 04:10:56;;;;;;;11.45;3.83;;;;;;;-2.82;100.00;101636.66;5069812;28;20033;-76
2021/03/01 04:14:00;;;;;;;7.15;3.72;;;;;;;-2.81;100.00;101635.50;5052055;28;20040;-76
2021/03/01 04:17:12;;;;;;;9.00;4.18;;;;;;;-2.81;100.00;101636.31;5057883;28;20051;-76
2021/03/01 04:20:22;;;;;;;10.10;4.82;;;;;;;-2.80;100.00;101631.66;5070151;28;20043;-76
2021/03/01 04:23:26;;;;;;;9.27;3.38;;;;;;;-2.82;100.00;101639.38;5071197;28;20037;-76
2021/03/01 04:26:30;;;;;;;8.82;4.22;;;;;;;-2.84;100.00;101630.75;5059344;28;20052;-76
2021/03/01 04:29:35;;;;;;;5.25;3.70;;;;;;;-2.89;100.00;101630.97;5072045;28;20055;-76
2021/03/01 04:32:47;;;;;;;10.30;5.55;;;;;;;-2.91;100.00;101625.06;5057232;28;20043;-76
2021/03/01 04:35:54;;;;;;;1.38;1.33;;;;;;;-2.92;100.00;101628.94;5060178;28;20040;-76
2021/03/01 04:38:57;;;;;;;8.38;4.95;;;;;;;-2.96;100.00;101623.38;5070431;28;20095;-75
2021/03/01 04:42:01;;;;;;;16.48;4.13;;;;;;;-2.98;100.00;101624.84;5070538;28;20055;-76
2021/03/01 04:45:06;;;;;;;5.47;4.63;;;;;;;-3.00;100.00;101621.66;5072449;28;20040;-76
2021/03/01 04:48:10;;;;;;;11.98;5.53;;;;;;;-3.01;100.00;101620.09;5060341;28;20417;-76
2021/03/01 04:51:15;;;;;;;7.50;4.93;;;;;;;-3.03;100.00;101611.47;5072819;28;20044;-76
2021/03/01 04:54:20;;;;;;;6.25;3.80;;;;;;;-3.03;100.00;101616.91;5072659;28;20048;-76
2021/03/01 04:57:26;;;;;;;11.88;3.72;;;;;;;-3.04;100.00;101609.84;5072569;28;20047;-76
2021/03/01 05:00:30;;;;;;;14.23;5.00;;;;;;;-3.02;100.00;101613.03;5060372;28;20385;-76
2021/03/01 05:03:34;;;;;;;4.85;4.35;;;;;;;-3.02;100.00;101608.38;5082799;28;20040;-76
2021/03/01 05:06:38;;;;;;;6.78;2.15;;;;;;;-3.01;100.00;101609.97;5059969;28;20044;-76
2021/03/01 05:09:42;;;;;;;32.38;4.32;;;;;;;-2.96;100.00;101611.66;5072487;28;20043;-76
2021/03/01 05:12:45;;;;;;;7.78;5.32;;;;;;;-2.91;100.00;101608.72;5072586;28;20040;-76
2021/03/01 05:15:48;;;;;;;6.38;3.47;;;;;;;-2.95;100.00;101597.72;5060307;28;20049;-76
2021/03/01 05:18:51;;;;;;;3.40;2.70;;;;;;;-2.93;100.00;101600.09;5052142;28;20052;-76
2021/03/01 05:21:55;;;;;;;9.60;3.05;;;;;;;-2.90;100.00;101599.41;5051190;28;20402;-76
2021/03/01 05:24:58;;;;;;;5.65;2.35;;;;;;;-2.88;100.00;101591.69;5051609;28;20059;-76
2021/03/01 05:28:01;;;;;;;3.17;2.90;;;;;;;-2.90;100.00;101607.59;5051253;28;20067;-76
2021/03/01 05:31:06;;;;;;;3.75;3.40;;;;;;;-2.95;100.00;101603.16;5051617;28;20056;-76
2021/03/01 05:34:10;;;;;;;6.32;3.72;;;;;;;-2.99;100.00;101588.66;5052470;28;20044;-76
2021/03/01 05:37:13;;;;;;;2.63;2.10;;;;;;;-2.98;100.00;101592.13;5051695;28;20061;-77
2021/03/01 05:40:17;;;;;;;6.15;2.88;;;;;;;-3.00;100.00;101592.50;5051472;28;20071;-76
2021/03/01 05:43:25;;;;;;;2.97;2.00;;;;;;;-2.95;100.00;101596.91;5050683;28;20052;-76
2021/03/01 05:46:29;;;;;;;1.63;1.58;;;;;;;-2.85;100.00;101589.06;5051161;28;20047;-76
2021/03/01 05:49:35;;;;;;;4.68;3.40;;;;;;;-2.83;100.00;101589.53;5050666;28;20044;-76
2021/03/01 05:52:44;;;;;;;1.60;1.60;;;;;;;-2.86;100.00;101583.97;5051171;28;20068;-76
2021/03/01 05:55:49;;;;;;;2.75;2.65;;;;;;;-2.84;100.00;101577.03;5051146;28;20047;-76
2021/03/01 05:58:52;;;;;;;3.10;2.13;;;;;;;-2.72;100.00;101578.94;5055769;28;20048;-76
2021/03/01 06:01:57;;;;;;;2.08;1.98;;;;;;;-2.62;100.00;101583.94;5055600;28;20512;-77
2021/03/01 06:05:04;;;;;;;1.30;1.25;;;;;;;-2.53;100.00;101581.84;5055311;28;20048;-77
2021/03/01 06:08:09;;;;;;;2.00;1.90;;;;;;;-2.53;100.00;101576.38;5054306;28;20515;-76
2021/03/01 06:11:13;;;;;;;1.98;1.10;;;;;;;-2.53;100.00;101577.19;5055792;28;20048;-76
2021/03/01 06:14:16;;;;;;;10.38;3.95;;;;;;;-2.59;100.00;101580.50;5054900;28;20052;-76
2021/03/01 06:17:19;;;;;;;5.55;3.38;;;;;;;-2.67;100.00;101573.25;5054556;28;20045;-76
2021/03/01 06:20:23;;;;;;;10.95;5.38;;;;;;;-2.80;100.00;101564.31;5055914;28;20504;-76
2021/03/01 06:23:34;;;;;;;8.93;2.40;;;;;;;-2.84;100.00;101570.78;5055330;28;20044;-76
2021/03/01 06:26:38;;;;;;;5.20;3.42;;;;;;;-2.89;100.00;101563.63;5054790;28;20517;-77
2021/03/01 06:30:04;;;;;;;4.85;3.72;;;;;;;-2.95;100.00;101569.66;5055674;28;20527;-76
2021/03/01 06:33:16;;;;;;;15.00;3.63;;;;;;;-2.98;100.00;101573.06;5055062;28;20504;-76
2021/03/01 06:36:19;;;;;;;9.18;4.35;;;;;;;-3.03;100.00;101573.31;5055525;28;20040;-76
2021/03/01 06:39:39;;;;;;;10.10;4.78;;;;;;;-3.11;100.00;101567.63;5054925;28;20398;-76
2021/03/01 06:42:42;;;;;;;30.30;4.80;;;;;;;-3.11;100.00;101575.81;5053946;28;20049;-76
2021/03/01 06:45:46;;;;;;;14.75;4.47;;;;;;;-3.10;100.00;101574.66;5055281;28;20045;-76
2021/03/01 06:48:49;;;;;;;8.95;4.38;;;;;;;-3.04;100.00;101579.88;5053998;28;20040;-76
2021/03/01 06:51:53;;;;;;;22.20;10.73;;;;;;;-2.92;100.00;101585.34;5053838;28;20052;-76
2021/03/01 06:55:08;;;;;;;31.20;5.53;;;;;;;-2.75;100.00;101568.72;5054092;28;20041;-77
2021/03/01 06:58:17;;;;;;;11.48;5.60;;;;;;;-2.59;100.00;101577.78;5054405;28;20385;-77
2021/03/01 07:01:21;;;;;;;5.95;3.65;;;;;;;-2.42;100.00;101572.03;5053854;28;20040;-77
2021/03/01 07:04:27;;;;;;;15.82;5.15;;;;;;;-2.17;100.00;101578.22;5054739;28;20048;-77
2021/03/01 07:07:38;;;;;;;5.55;4.15;;;;;;;-1.92;100.00;101575.00;5052973;28;20045;-76
2021/03/01 07:10:42;;;;;;;12.20;4.25;;;;;;;-1.70;100.00;101577.16;5054654;28;20047;-76
2021/03/01 07:13:46;;;;;;;11.70;3.63;;;;;;;-1.46;100.00;101580.88;5053270;28;20040;-76
2021/03/01 07:16:50;;;;;;;9.75;4.65;;;;;;;-1.25;100.00;101589.59;5058352;28;20049;-77
2021/03/01 07:19:54;;;;;;;6.72;2.78;;;;;;;-0.91;100.00;101586.13;5074441;28;20052;-77
2021/03/01 07:22:58;;;;;;;3.38;1.63;;;;;;;-0.68;100.00;101587.03;5053916;28;20063;-76
2021/03/01 07:26:04;;;;;;;2.83;2.20;;;;;;;-0.46;100.00;101589.09;5065170;28;20505;-76
2021/03/01 07:29:22;;;;;;;5.00;3.47;;;;;;;-0.20;100.00;101589.25;5054259;28;20040;-77
2021/03/01 07:32:27;;;;;;;1.42;1.35;;;;;;;-0.16;100.00;101590.13;5041691;28;20068;-77
2021/03/01 07:35:31;;;;;;;4.20;2.53;;;;;;;-0.05;100.00;101596.59;5041922;28;20071;-78
2021/03/01 07:38:35;;;;;;;9.63;1.60;;;;;;;0.15;100.00;101596.59;5041269;28;20052;-78
2021/03/01 07:41:39;;;;;;;2.35;2.25;;;;;;;0.25;100.00;101594.03;5041452;28;20215;-78
2021/03/01 07:44:48;;;;;;;4.18;1.70;;;;;;;0.28;100.00;101592.53;5064397;28;20059;-77
2021/03/01 07:47:52;;;;;;;1.60;1.20;;;;;;;0.32;100.00;101598.84;5064226;28;20071;-78
2021/03/01 07:50:55;;;;;;;2.85;2.22;;;;;;;0.52;100.00;101598.44;5041555;28;20047;-77
2021/03/01 07:53:58;;;;;;;1.02;1.02;;;;;;;0.64;100.00;101605.69;5064317;28;20048;-79
2021/03/01 07:57:07;;;;;;;8.27;2.22;;;;;;;0.67;100.00;101599.50;5041142;28;20048;-79
2021/03/01 08:00:29;;;;;;;10.73;2.38;;;;;;;0.80;100.00;101600.88;5064459;28;20052;-81
2021/03/01 08:03:36;;;;;;;4.88;2.45;;;;;;;0.84;100.00;101593.50;5041350;28;20116;-76
2021/03/01 08:06:58;;;;;;;2.25;1.48;;;;;;;0.87;100.00;101590.00;5040952;28;20048;-77
2021/03/01 08:10:02;;;;;;;;;;;;;;;0.97;100.00;101589.41;5041405;28;20040;-80
2021/03/01 08:13:07;;;;;;;5.25;2.33;;;;;;;1.05;100.00;101591.09;5041105;28;19913;-81
2021/03/01 08:16:22;;;;;;;8.00;2.78;;;;;;;1.17;100.00;101598.34;5053541;28;20043;-81
2021/03/01 08:19:41;;;;;;;2.40;1.95;;;;;;;1.22;100.00;101598.78;5063174;28;20044;-80
2021/03/01 08:23:10;;;;;;;7.57;2.40;;;;;;;1.28;100.00;101597.31;5041018;28;20044;-79
2021/03/01 08:26:34;;;;;;;1.38;1.38;;;;;;;1.31;100.00;101604.81;5040896;28;20048;-80
2021/03/01 08:29:37;;;;;;;2.78;1.25;;;;;;;1.40;100.00;101604.53;5040965;28;20052;-80
2021/03/01 08:32:41;;;;;;;2.00;1.23;;;;;;;1.46;100.00;101603.06;5063521;28;20056;-79
2021/03/01 08:35:48;;;;;;;0.88;0.85;;;;;;;1.52;100.00;101604.31;5053458;28;20393;-81
2021/03/01 08:38:56;;;;;;;7.15;1.20;;;;;;;1.62;100.00;101608.38;5040728;28;20056;-81
2021/03/01 08:42:00;;;;;;;6.20;1.52;;;;;;;1.71;100.00;101619.88;5043143;28;20051;-80
2021/03/01 08:45:04;;;;;;;6.75;1.10;;;;;;;1.82;100.00;101605.09;5044578;28;20055;-81
2021/03/01 08:48:17;;;;;;;5.00;1.77;;;;;;;1.93;100.00;101610.72;5040385;28;20504;-82
2021/03/01 08:51:20;;;;;;;;;;;;;;;2.01;100.00;101604.16;5041265;28;20048;-80
2021/03/01 08:54:28;;;;;;;2.05;1.83;;;;;;;2.12;100.00;101602.34;5052899;28;20365;-80
2021/03/01 08:57:32;;;;;;;3.15;0.80;;;;;;;2.19;100.00;101603.19;5040253;28;20056;-80
2021/03/01 09:00:59;;;;;;;4.07;1.85;;;;;;;2.26;100.00;101607.97;5063570;28;20044;-80
2021/03/01 09:04:03;;;;;;;2.67;1.58;;;;;;;2.36;100.00;101610.03;5053299;28;20051;-82
2021/03/01 09:07:08;;;;;;;5.80;2.70;;;;;;;2.45;100.00;101602.28;5040496;28;20397;-80
2021/03/01 09:10:12;;;;;;;1.15;1.05;;;;;;;2.57;100.00;101603.97;5063526;28;20512;-79
2021/03/01 09:13:19;;;;;;;5.20;2.53;;;;;;;2.63;100.00;101600.50;5040215;28;20060;-80
2021/03/01 09:16:27;;;;;;;2.38;0.90;;;;;;;2.73;100.00;101605.28;5040309;28;20047;-80
2021/03/01 09:19:33;;;;;;;3.33;1.50;;;;;;;2.81;100.00;101606.94;5052560;28;20052;-80
2021/03/01 09:22:44;;;;;;;6.20;1.88;;;;;;;2.87;100.00;101599.94;5071637;28;20401;-82
2021/03/01 09:25:47;;;;;;;6.85;1.15;;;;;;;2.92;100.00;101602.31;5073164;28;20055;-80
2021/03/01 09:28:54;;;;;;;6.22;1.88;;;;;;;2.97;100.00;101610.22;5057746;28;20401;-80
2021/03/01 09:31:58;;;;;;;7.10;2.20;;;;;;;3.05;100.00;101600.84;5063665;28;20052;-81
2021/03/01 09:35:17;;;;;;;2.15;1.55;;;;;;;3.16;100.00;101600.94;5064166;28;20043;-80
2021/03/01 09:38:21;;;;;;;5.47;1.90;;;;;;;3.26;100.00;101610.44;5063965;28;20048;-81
2021/03/01 09:41:31;;;;;;;2.15;1.55;;;;;;;3.34;100.00;101623.84;5087387;28;20051;-80
2021/03/01 09:44:37;;;;;;;5.05;1.55;;;;;;;3.44;100.00;101605.84;5087276;28;20052;-82
2021/03/01 09:47:41;;;;;;;6.13;1.38;;;;;;;3.51;100.00;101600.38;5064170;28;20043;-81
2021/03/01 09:50:46;;;;;;;9.10;1.65;;;;;;;3.57;100.00;101612.59;5064709;28;20055;-80
2021/03/01 09:53:51;;;;;;;5.30;2.47;;;;;;;3.61;100.00;101605.16;5064601;28;20047;-79
2021/03/01 09:56:56;;;;;;;2.38;0.95;;;;;;;3.70;100.00;101608.34;5064310;28;20052;-78
2021/03/01 09:59:59;;;;;;;5.72;1.95;;;;;;;3.79;100.00;101611.50;5076366;28;20048;-78
2021/03/01 10:03:04;;;;;;;3.97;1.23;;;;;;;3.86;100.00;101600.53;5087272;28;20071;-79
2021/03/01 10:06:10;;;;;;;7.85;2.00;;;;;;;3.96;100.00;101605.31;5076155;28;20045;-79
2021/03/01 10:09:14;;;;;;;4.53;2.05;;;;;;;4.01;100.00;101602.16;5063630;28;20043;-79
2021/03/01 10:12:18;;;;;;;2.63;1.90;;;;;;;4.10;100.00;101594.31;5076119;28;20051;-78
2021/03/01 10:15:22;;;;;;;4.00;1.13;;;;;;;4.24;100.00;101597.13;5063817;28;20039;-78
2021/03/01 10:18:27;;;;;;;1.58;1.10;;;;;;;4.35;100.00;101599.91;5075182;28;20528;-78
2021/03/01 10:21:32;;;;;;;0.82;0.82;;;;;;;4.45;100.00;101588.91;5075906;28;20051;-78
2021/03/01 10:24:46;;;;;;;1.05;0.95;;;;;;;4.50;100.00;101596.78;5075609;28;20056;-78
2021/03/01 10:27:49;;;;;;;6.60;1.52;;;;;;;4.51;100.00;101587.31;5076146;28;20059;-78
2021/03/01 10:31:08;;;;;;;6.28;0.82;;;;;;;4.50;100.00;101601.53;5063564;28;20043;-79
2021/03/01 10:34:15;;;;;;;1.50;1.02;;;;;;;4.43;100.00;101590.47;5063396;28;20044;-78
2021/03/01 10:37:26;;;;;;;1.15;0.82;;;;;;;4.35;100.00;101595.16;5075600;28;20051;-78
2021/03/01 10:40:30;;;;;;;2.37;1.10;;;;;;;4.46;100.00;101589.69;5063192;28;20055;-78
2021/03/01 10:43:34;;;;;;;2.90;1.23;;;;;;;4.43;100.00;101580.22;5074559;28;20047;-80
2021/03/01 10:46:43;;;;;;;4.70;1.92;;;;;;;4.50;100.00;101591.25;5066436;28;20040;-79
2021/03/01 10:49:53;;;;;;;8.50;0.98;;;;;;;4.55;100.00;101599.16;5063264;28;20047;-81
2021/03/01 10:52:56;;;;;;;2.47;1.38;;;;;;;4.72;100.00;101585.78;5062964;28;20393;-80
2021/03/01 10:55:59;;;;;;;7.63;2.50;;;;;;;4.78;100.00;101589.72;5075560;28;20055;-80
2021/03/01 10:59:04;;;;;;;4.75;1.45;;;;;;;4.85;100.00;101592.50;5063175;28;20051;-79
2021/03/01 11:02:08;;;;;;;3.40;0.90;;;;;;;4.83;100.00;101586.56;5075604;28;20107;-81
2021/03/01 11:05:11;;;;;;;1.65;0.95;;;;;;;4.85;100.00;101584.97;5062953;28;20051;-81
2021/03/01 11:08:15;;;;;;;3.85;1.30;;;;;;;4.72;100.00;101580.25;5062463;28;20036;-80
2021/03/01 11:11:18;;;;;;;4.20;1.05;;;;;;;4.70;100.00;101583.41;5062485;28;20138;-80
2021/03/01 11:14:22;;;;;;;1.25;1.13;;;;;;;4.81;100.00;101583.41;5062513;28;20064;-81
2021/03/01 11:17:26;;;;;;;4.72;1.90;;;;;;;4.77;100.00;101574.31;5085723;28;20393;-79
2021/03/01 11:20:29;;;;;;;2.00;1.30;;;;;;;4.71;100.00;101575.91;5062346;28;20067;-81
2021/03/01 11:23:32;;;;;;;5.38;1.55;;;;;;;4.71;100.00;101567.63;5062534;28;20044;-80
2021/03/01 11:26:36;;;;;;;1.88;1.13;;;;;;;4.82;100.00;101565.66;5085654;28;20501;-76
2021/03/01 11:29:39;;;;;;;6.25;1.85;;;;;;;4.93;100.00;101571.97;5062436;28;20039;-81
2021/03/01 11:32:43;;;;;;;3.08;1.55;;;;;;;5.02;100.00;101566.84;5075050;28;20071;-81
2021/03/01 11:35:47;;;;;;;4.05;1.83;;;;;;;5.06;100.00;101570.38;5062179;28;20055;-81
2021/03/01 11:38:51;;;;;;;3.33;1.50;;;;;;;5.14;100.00;101564.47;5061967;28;20052;-80
2021/03/01 11:41:54;;;;;;;9.23;1.70;;;;;;;5.17;100.00;101562.88;5085101;28;20044;-78
2021/03/01 11:44:57;;;;;;;3.45;1.73;;;;;;;5.31;100.00;101562.84;5074350;28;20048;-81
2021/03/01 11:48:01;;;;;;;1.10;0.98;;;;;;;5.44;100.00;101561.22;5061879;28;20065;-79
2021/03/01 11:51:05;;;;;;;3.30;1.17;;;;;;;5.47;100.00;101560.44;5074747;28;20039;-80
2021/03/01 11:54:08;;;;;;;2.05;1.52;;;;;;;5.53;100.00;101558.84;5062397;28;20047;-82
2021/03/01 11:57:13;;;;;;;1.40;0.93;;;;;;;5.52;100.00;101546.22;5062390;28;20059;-81
2021/03/01 12:00:18;;;;;;;2.03;1.33;;;;;;;5.55;100.00;101550.13;5074020;28;20052;-81
2021/03/01 12:03:21;;;;;;;4.82;1.08;;;;;;;5.61;100.00;101552.09;5061959;28;20048;-81
2021/03/01 12:06:25;;;;;;;2.38;0.82;;;;;;;5.62;100.00;101545.38;5062345;28;20044;-83
2021/03/01 12:09:29;;;;;;;1.35;0.40;;;;;;;5.65;100.00;101536.28;5061824;28;20055;-82
2021/03/01 12:12:32;;;;;;;1.35;1.05;;;;;;;5.71;100.00;101526.41;5074755;28;20071;-82
2021/03/01 12:15:36;;;;;;;3.92;1.33;;;;;;;5.75;100.00;101520.84;5061578;28;20043;-82
2021/03/01 12:18:39;;;;;;;1.77;1.05;;;;;;;5.81;100.00;101514.50;5061959;28;20063;-81
2021/03/01 12:21:42;;;;;;;2.58;1.95;;;;;;;5.81;100.00;101508.97;5085224;28;20401;-80
2021/03/01 12:24:46;;;;;;;5.20;1.80;;;;;;;5.88;100.00;101506.22;5084926;28;20055;-79
2021/03/01 12:27:50;;;;;;;3.33;1.17;;;;;;;5.97;100.00;101498.25;5084208;28;20043;-81
2021/03/01 12:30:53;;;;;;;4.88;1.63;;;;;;;6.06;100.00;101501.34;5061545;28;20071;-81
2021/03/01 12:33:56;;;;;;;8.07;1.45;;;;;;;6.13;100.00;101498.53;5084335;28;20115;-81
2021/03/01 12:37:01;;;;;;;3.42;1.50;;;;;;;6.28;100.00;101501.22;5073980;28;20055;-81
2021/03/01 12:40:06;;;;;;;2.20;0.90;;;;;;;6.35;100.00;101492.84;5084884;28;20052;-81
2021/03/01 12:43:09;;;;;;;6.38;2.33;;;;;;;6.37;100.00;101493.22;5061664;28;20590;-81
2021/03/01 12:46:13;;;;;;;6.80;2.53;;;;;;;6.41;100.00;101496.78;5061837;28;20044;-80
2021/03/01 12:49:16;;;;;;;5.68;1.05;;;;;;;6.38;100.00;101481.78;5088429;28;20405;-80
2021/03/01 12:52:20;;;;;;;3.47;1.17;;;;;;;6.44;100.00;101484.88;5073250;28;20432;-81
2021/03/01 12:55:23;;;;;;;5.80;1.98;;;;;;;6.47;100.00;101473.00;5074175;28;20832;-79
2021/03/01 12:58:27;;;;;;;3.08;1.02;;;;;;;6.52;100.00;101472.56;5083885;28;20051;-80
2021/03/01 13:01:32;;;;;;;4.28;0.93;;;;;;;6.61;100.00;101464.56;5060562;28;20055;-80
2021/03/01 13:04:35;;;;;;;1.80;1.55;;;;;;;6.69;100.00;101466.09;5084195;28;20051;-78
2021/03/01 13:07:39;;;;;;;3.03;1.85;;;;;;;6.67;100.00;101465.72;5059303;28;20744;-77
2021/03/01 13:10:42;;;;;;;5.85;1.75;;;;;;;6.71;100.00;101460.94;5040377;28;20048;-81
2021/03/01 13:13:46;;;;;;;1.70;1.27;;;;;;;6.71;100.00;101460.94;5041059;28;20064;-81
2021/03/01 13:16:49;;;;;;;7.20;2.05;;;;;;;6.74;100.00;101455.34;5040457;28;20068;-81
2021/03/01 13:19:53;;;;;;;4.40;2.05;;;;;;;6.76;100.00;101457.69;5040478;28;20051;-79
2021/03/01 13:22:56;;;;;;;1.45;1.02;;;;;;;6.81;100.00;101448.97;5063502;28;20040;-79
2021/03/01 13:26:00;;;;;;;4.68;1.98;;;;;;;6.90;100.00;101446.50;5052798;28;20394;-77
2021/03/01 13:29:03;;;;;;;4.18;1.30;;;;;;;6.91;100.00;101442.50;5052593;28;20044;-78
2021/03/01 13:32:07;;;;;;;7.43;1.90;;;;;;;6.93;100.00;101442.88;5040588;28;20048;-78
2021/03/01 13:35:11;;;;;;;6.25;2.78;;;;;;;6.98;100.00;101441.66;5040294;28;20523;-76
2021/03/01 13:38:15;;;;;;;8.77;2.53;;;;;;;6.92;100.00;101432.22;5039918;28;20048;-77
2021/03/01 13:41:19;;;;;;;6.70;2.72;;;;;;;6.85;100.00;101427.53;5063247;28;20509;-77
2021/03/01 13:44:22;;;;;;;7.22;1.77;;;;;;;6.81;100.00;101424.03;5052460;28;20044;-77
2021/03/01 13:47:26;;;;;;;5.90;1.88;;;;;;;6.82;100.00;101423.63;5052753;28;20056;-81
2021/03/01 13:50:29;;;;;;;9.93;2.55;;;;;;;6.78;100.00;101427.63;5062769;28;20044;-76
2021/03/01 13:53:33;;;;;;;4.15;2.08;;;;;;;6.73;100.00;101425.31;5040047;28;20104;-77
2021/03/01 13:56:37;;;;;;;5.28;2.05;;;;;;;6.70;100.00;101415.84;5040059;28;20099;-78
2021/03/01 13:59:41;;;;;;;11.85;2.20;;;;;;;6.72;100.00;101418.19;5039944;28;20044;-78
2021/03/01 14:02:44;;;;;;;4.28;2.05;;;;;;;6.68;100.00;101423.78;5040058;28;20043;-77
2021/03/01 14:05:47;;;;;;;3.70;1.73;;;;;;;6.55;100.00;101414.41;5052282;28;20048;-78
2021/03/01 14:08:51;;;;;;;6.57;3.28;;;;;;;6.51;100.00;101412.88;5039972;28;20060;-80
2021/03/01 14:11:54;;;;;;;4.03;1.42;;;;;;;6.48;100.00;101408.16;5052365;28;20068;-79
2021/03/01 14:14:58;;;;;;;6.47;2.38;;;;;;;6.45;100.00;101411.75;5052062;28;20051;-78